Time;durP1;ratioP1;P1;durP2;ratioP2;P2;SDS_P1;SDS_P2;PMS_P1;PMS_P2;Temp;Humidity;BMP_temperature;BMP_pressure;BME280_temperature;BME280_humidity;BME280_pressure;Samples;Min_cycle;Max_cycle;Signal;HPM_P1;HPM_P2
2023/09/01 00:02:22;;;;;;;;;1.00;1.00;;;;;18.99;87.55;100972.25;5082851;27;45877;-54
2023/09/01 00:04:47;;;;;;;;;0.67;0.67;;;;;19.00;87.30;100968.53;5086013;27;48458;-54
2023/09/01 00:07:12;;;;;;;;;0.00;0.00;;;;;19.01;86.92;100966.72;5091030;27;66356;-54
2023/09/01 00:09:38;;;;;;;;;0.50;0.50;;;;;19.01;87.23;100964.88;5074396;27;67381;-55
2023/09/01 00:12:04;;;;;;;;;1.00;1.00;;;;;19.05;87.39;100970.03;5070805;28;68538;-53
2023/09/01 00:14:29;;;;;;;;;1.00;1.00;;;;;19.06;86.87;100967.19;5082179;27;45619;-55
2023/09/01 00:16:54;;;;;;;;;1.50;1.00;;;;;19.07;86.60;100970.75;5080928;27;54700;-53
2023/09/01 00:19:23;;;;;;;;;1.75;0.50;;;;;19.07;86.11;100965.34;5074714;27;45438;-54
2023/09/01 00:21:49;;;;;;;;;0.67;0.67;;;;;19.06;86.11;100975.28;5078676;27;45304;-53
2023/09/01 00:24:15;;;;;;;;;4.00;0.00;;;;;19.06;85.88;100969.91;5081535;27;46296;-54
2023/09/01 00:26:40;;;;;;;;;2.00;0.25;;;;;19.06;86.19;100969.91;5090462;27;45653;-54
2023/09/01 00:29:05;;;;;;;;;2.00;1.75;;;;;19.05;85.92;100962.78;5095680;27;63927;-55
2023/09/01 00:31:32;;;;;;;;;2.00;2.00;;;;;19.06;85.98;100969.03;5085697;27;45549;-56
2023/09/01 00:33:57;;;;;;;;;1.00;1.00;;;;;19.06;86.29;100966.31;5094238;27;45392;-54
2023/09/01 00:36:22;;;;;;;;;1.00;1.00;;;;;19.05;85.69;100959.25;5083761;27;70785;-53
2023/09/01 00:38:48;;;;;;;;;4.67;1.00;;;;;19.04;85.15;100957.53;5084773;27;67435;-54
2023/09/01 00:41:13;;;;;;;;;2.00;0.00;;;;;19.01;85.46;100962.19;5084559;27;51644;-54
2023/09/01 00:43:38;;;;;;;;;1.00;1.00;;;;;19.00;85.33;100973.09;5097246;27;73067;-53
2023/09/01 00:46:04;;;;;;;;;4.00;1.00;;;;;18.98;85.16;100964.25;5075120;27;45381;-52
2023/09/01 00:48:29;;;;;;;;;0.00;0.00;;;;;18.96;85.23;100961.69;5088111;27;45516;-54
2023/09/01 00:50:54;;;;;;;;;1.25;1.00;;;;;18.96;85.51;100964.41;5089155;27;67662;-54
2023/09/01 00:53:21;;;;;;;;;1.00;1.00;;;;;18.97;85.47;100963.41;5065102;27;62385;-55
2023/09/01 00:55:47;;;;;;;;;1.00;1.00;;;;;18.97;85.81;100963.41;5092369;27;45339;-56
2023/09/01 00:58:13;;;;;;;;;1.25;0.50;;;;;18.99;85.96;100965.97;5075144;27;45477;-54
2023/09/01 01:00:39;;;;;;;;;0.00;0.00;;;;;18.99;85.69;100966.84;5072608;27;45559;-54
2023/09/01 01:03:06;;;;;;;;;1.00;1.00;;;;;19.01;86.00;100967.56;5088938;27;46916;-54
2023/09/01 01:05:39;;;;;;;;;7.00;1.00;;;;;19.03;85.51;100966.59;5064270;27;45297;-55
2023/09/01 01:08:11;;;;;;;;;2.25;1.00;;;;;19.04;85.45;100968.31;5071945;27;45440;-55
2023/09/01 01:10:45;;;;;;;;;1.00;1.00;;;;;19.03;85.04;100969.28;5085740;27;45556;-55
2023/09/01 01:13:14;;;;;;;;;1.00;1.00;;;;;19.04;85.17;100961.06;5068993;27;45443;-54
2023/09/01 01:15:40;;;;;;;;;1.50;0.50;;;;;19.05;85.42;100957.41;5062707;28;45402;-55
2023/09/01 01:18:08;;;;;;;;;2.00;0.50;;;;;19.06;85.44;100959.13;5076991;27;67937;-55
2023/09/01 01:20:36;;;;;;;;;2.25;0.75;;;;;19.08;85.57;100959.81;5071219;27;45468;-55
2023/09/01 01:23:09;;;;;;;;;0.25;0.25;;;;;19.10;85.71;100957.00;5072740;27;46158;-55
2023/09/01 01:25:34;;;;;;;;;2.00;1.00;;;;;19.10;85.70;100955.16;5094231;27;45481;-55
2023/09/01 01:28:06;;;;;;;;;0.25;0.25;;;;;19.12;85.24;100955.03;5066512;27;64305;-55
2023/09/01 01:30:32;;;;;;;;;1.25;0.00;;;;;19.12;85.62;100944.25;5066279;28;45910;-55
2023/09/01 01:32:57;;;;;;;;;1.00;1.00;;;;;19.11;84.95;100946.09;5084543;27;45384;-55
2023/09/01 01:35:52;;;;;;;;;3.25;1.00;;;;;19.10;85.35;100948.91;5087188;27;66810;-54
2023/09/01 01:38:26;;;;;;;;;1.00;1.00;;;;;19.08;85.02;100945.50;5082303;27;45229;-54
2023/09/01 01:40:55;;;;;;;;;0.00;0.00;;;;;19.07;85.09;100946.47;5085804;27;45501;-54
2023/09/01 01:43:26;;;;;;;;;2.50;1.00;;;;;19.08;84.71;100940.94;5066603;27;46694;-54
2023/09/01 01:45:52;;;;;;;;;1.00;1.00;;;;;19.10;84.29;100944.38;5068612;27;72987;-55
2023/09/01 01:48:17;;;;;;;;;1.75;1.00;;;;;19.10;84.52;100944.38;5088207;27;45442;-55
2023/09/01 01:50:43;;;;;;;;;0.25;0.25;;;;;19.12;84.56;100946.94;5073852;27;70389;-54
2023/09/01 01:53:08;;;;;;;;;1.67;1.67;;;;;19.13;84.92;100943.28;5085106;27;45895;-54
2023/09/01 01:55:34;;;;;;;;;3.00;2.00;;;;;19.12;84.56;100936.16;5086520;27;45538;-55
2023/09/01 01:58:00;;;;;;;;;2.67;1.00;;;;;19.11;84.47;100942.53;5081824;27;45512;-54
2023/09/01 02:00:27;;;;;;;;;0.33;0.33;;;;;19.11;84.54;100943.41;5092583;27;45765;-55
2023/09/01 02:02:53;;;;;;;;;0.50;0.50;;;;;19.12;84.26;100938.84;5078452;27;48763;-55
2023/09/01 02:05:19;;;;;;;;;1.00;1.00;;;;;19.10;83.60;100948.91;5090593;27;45719;-55
2023/09/01 02:07:44;;;;;;;;;0.75;0.75;;;;;19.09;83.88;100945.38;5088981;27;45400;-55
2023/09/01 02:10:10;;;;;;;;;1.33;1.33;;;;;19.08;83.35;100951.72;5096904;27;45630;-55
2023/09/01 02:12:35;;;;;;;;;0.00;0.00;;;;;19.07;83.70;100944.63;5081057;27;66779;-56
2023/09/01 02:15:01;;;;;;;;;1.00;1.00;;;;;19.07;84.02;100947.31;5081096;27;45453;-55
2023/09/01 02:17:26;;;;;;;;;4.00;1.00;;;;;19.08;83.33;100950.88;5073783;27;45441;-55
2023/09/01 02:19:51;;;;;;;;;2.00;1.00;;;;;19.07;83.31;100944.63;5085971;27;45366;-55
2023/09/01 02:22:17;;;;;;;;;2.25;0.00;;;;;19.07;83.54;100946.47;5094968;27;74425;-54
2023/09/01 02:24:42;;;;;;;;;1.75;0.25;;;;;19.08;83.55;100940.09;5085236;27;73404;-55
2023/09/01 02:27:08;;;;;;;;;0.50;0.50;;;;;19.06;83.31;100942.94;5088516;27;53132;-55
2023/09/01 02:29:33;;;;;;;;;0.50;0.50;;;;;19.01;83.21;100937.91;5083574;27;45470;-55
2023/09/01 02:31:58;;;;;;;;;2.00;1.00;;;;;18.98;83.00;100937.31;5091546;27;45229;-54
2023/09/01 02:34:24;;;;;;;;;1.00;1.00;;;;;18.94;83.02;100931.34;5084023;27;69340;-55
2023/09/01 02:36:49;;;;;;;;;0.00;0.00;;;;;18.92;82.84;100922.53;5083672;27;59084;-54
2023/09/01 02:39:16;;;;;;;;;1.00;1.00;;;;;18.90;83.48;100929.88;5079095;28;69325;-56
2023/09/01 02:41:42;;;;;;;;;0.75;0.75;;;;;18.89;82.84;100930.88;5087581;27;46418;-54
2023/09/01 02:44:07;;;;;;;;;2.00;2.00;;;;;18.85;83.00;100932.94;5090805;27;46024;-55
2023/09/01 02:46:32;;;;;;;;;1.00;1.00;;;;;18.85;82.85;100926.66;5090769;27;45402;-55
2023/09/01 02:48:58;;;;;;;;;2.00;1.00;;;;;18.82;82.43;100937.72;5081269;27;69309;-55
2023/09/01 02:51:23;;;;;;;;;1.00;0.00;;;;;18.79;83.25;100928.03;5087334;27;75553;-55
2023/09/01 02:53:48;;;;;;;;;0.67;0.67;;;;;18.78;82.83;100929.00;5077720;27;45409;-55
2023/09/01 02:56:14;;;;;;;;;0.50;0.50;;;;;18.77;82.68;100937.22;5090294;27;54377;-52
2023/09/01 02:58:39;;;;;;;;;1.00;1.00;;;;;18.75;82.67;100934.66;5079562;27;70485;-55
2023/09/01 03:01:07;;;;;;;;;0.50;0.50;;;;;18.74;83.09;100938.34;5083352;27;46246;-55
2023/09/01 03:03:33;;;;;;;;;0.50;0.50;;;;;18.75;83.42;100937.38;5085081;27;45495;-55
2023/09/01 03:05:59;;;;;;;;;1.33;1.00;;;;;18.76;83.10;100940.91;5092373;27;45459;-55
2023/09/01 03:08:24;;;;;;;;;0.75;0.75;;;;;18.74;82.57;100942.88;5078992;27;60398;-56
2023/09/01 03:10:49;;;;;;;;;0.25;0.25;;;;;18.72;82.96;100940.31;5082982;27;70964;-58
2023/09/01 03:13:15;;;;;;;;;1.00;0.25;;;;;18.75;82.35;100947.28;5082069;27;69869;-56
2023/09/01 03:15:41;;;;;;;;;1.00;0.25;;;;;18.73;82.90;100946.56;5089248;27;45434;-55
2023/09/01 03:18:08;;;;;;;;;2.25;0.00;;;;;18.74;82.95;100941.03;5085392;27;45443;-55
2023/09/01 03:20:34;;;;;;;;;0.50;0.50;;;;;18.74;82.82;100941.03;5091551;27;46360;-54
2023/09/01 03:22:59;;;;;;;;;0.75;0.00;;;;;18.76;82.96;100939.09;5077229;27;46725;-54
2023/09/01 03:25:25;;;;;;;;;1.25;1.00;;;;;18.77;82.90;100937.22;5085213;27;45435;-55
2023/09/01 03:27:50;;;;;;;;;0.50;0.50;;;;;18.77;82.48;100931.84;5088749;27;53952;-56
2023/09/01 03:30:15;;;;;;;;;2.00;0.00;;;;;18.75;82.41;100929.28;5085487;27;73830;-55
2023/09/01 03:32:41;;;;;;;;;0.75;0.75;;;;;18.76;82.83;100925.63;5089615;27;45484;-54
2023/09/01 03:35:07;;;;;;;;;0.00;0.00;;;;;18.77;82.93;100939.94;5092116;27;45594;-54
2023/09/01 03:37:33;;;;;;;;;1.67;1.00;;;;;18.77;82.28;100930.03;5090472;27;45313;-54
2023/09/01 03:40:00;;;;;;;;;0.00;0.00;;;;;18.78;82.04;100928.16;5094631;27;46499;-54
2023/09/01 03:42:25;;;;;;;;;0.75;0.75;;;;;18.77;82.15;100930.03;5089890;27;58453;-55
2023/09/01 03:44:51;;;;;;;;;1.00;1.00;;;;;18.76;82.20;100924.75;5092650;27;45343;-55
2023/09/01 03:47:18;;;;;;;;;0.75;0.75;;;;;18.74;82.05;100918.63;5088118;27;45564;-55
2023/09/01 03:49:43;;;;;;;;;2.00;1.00;;;;;18.73;82.58;100933.09;5084798;27;45471;-54
2023/09/01 03:52:08;;;;;;;;;2.75;0.00;;;;;18.72;82.03;100923.28;5089319;27;70467;-55
2023/09/01 03:54:34;;;;;;;;;1.00;0.00;;;;;18.72;82.01;100918.78;5093960;27;67449;-55
2023/09/01 03:56:59;;;;;;;;;1.00;1.00;;;;;18.70;82.17;100914.50;5089212;27;70565;-55
2023/09/01 03:59:24;;;;;;;;;0.25;0.25;;;;;18.65;82.25;100923.78;5086330;27;71539;-55
2023/09/01 04:01:50;;;;;;;;;1.00;1.00;;;;;18.64;82.40;100915.84;5092450;27;59948;-54
2023/09/01 04:04:17;;;;;;;;;1.00;1.00;;;;;18.63;82.37;100909.59;5077393;27;60557;-55
2023/09/01 04:06:43;;;;;;;;;1.00;1.00;;;;;18.63;82.66;100909.59;5090843;27;45570;-55
2023/09/01 04:09:08;;;;;;;;;1.00;1.00;;;;;18.62;82.75;100912.44;5091884;27;72497;-52
2023/09/01 04:11:34;;;;;;;;;1.00;1.00;;;;;18.62;82.55;100907.03;5091556;27;45334;-55
2023/09/01 04:14:00;;;;;;;;;1.00;0.67;;;;;18.62;82.79;100912.44;5084418;27;45387;-54
2023/09/01 04:16:25;;;;;;;;;0.75;0.75;;;;;18.60;82.38;100912.53;5083094;27;45441;-55
2023/09/01 04:18:51;;;;;;;;;3.75;1.00;;;;;18.58;82.79;100903.75;5067636;27;75412;-57
2023/09/01 04:21:16;;;;;;;;;1.00;1.00;;;;;18.55;82.84;100903.13;5091689;27;45398;-55
2023/09/01 04:23:42;;;;;;;;;1.00;1.00;;;;;18.52;82.86;100906.94;5092652;27;45577;-55
2023/09/01 04:26:07;;;;;;;;;1.00;0.00;;;;;18.52;82.65;100901.53;5086180;27;69209;-54
2023/09/01 04:28:33;;;;;;;;;1.00;0.00;;;;;18.51;82.97;100900.69;5088676;27;46961;-54
2023/09/01 04:30:59;;;;;;;;;1.50;1.00;;;;;18.49;83.15;100908.03;5087690;27;45390;-54
2023/09/01 04:33:26;;;;;;;;;1.00;1.00;;;;;18.48;83.03;100908.16;5082088;27;45578;-54
2023/09/01 04:36:03;;;;;;;;;1.00;1.00;;;;;18.47;83.50;100911.84;5085280;27;45684;-55
2023/09/01 04:38:28;;;;;;;;;0.00;0.00;;;;;18.46;83.49;100911.00;5082418;27;47026;-53
2023/09/01 04:40:57;;;;;;;;;3.00;1.00;;;;;18.46;84.05;100913.69;5086704;27;45398;-55
2023/09/01 04:43:25;;;;;;;;;1.00;1.00;;;;;18.44;83.36;100907.56;5081232;27;45376;-55
2023/09/01 04:45:51;;;;;;;;;2.67;1.00;;;;;18.42;83.24;100914.91;5093424;27;45611;-55
2023/09/01 04:48:17;;;;;;;;;1.00;1.00;;;;;18.43;83.13;100915.75;5098411;27;45306;-55
2023/09/01 04:50:42;;;;;;;;;0.00;0.00;;;;;18.44;83.61;100918.31;5088569;27;73269;-55
2023/09/01 04:53:09;;;;;;;;;1.00;1.00;;;;;18.46;83.51;100920.88;5088566;27;65904;-55
2023/09/01 04:55:34;;;;;;;;;0.00;0.00;;;;;18.48;83.79;100919.78;5081586;27;45516;-54
2023/09/01 04:58:00;;;;;;;;;1.00;1.00;;;;;18.51;83.59;100924.94;5087950;27;45595;-55
2023/09/01 05:00:25;;;;;;;;;1.33;0.00;;;;;18.48;84.01;100918.94;5093171;27;45497;-55
2023/09/01 05:02:50;;;;;;;;;3.00;1.50;;;;;18.48;83.34;100921.63;5094898;27;45501;-55
2023/09/01 05:05:16;;;;;;;;;2.67;2.00;;;;;18.46;84.06;100923.59;5086193;27;56927;-54
2023/09/01 05:07:41;;;;;;;;;1.00;1.00;;;;;18.47;83.95;100922.59;5089928;27;47246;-54
2023/09/01 05:10:08;;;;;;;;;1.00;1.00;;;;;18.47;84.09;100920.78;5072499;27;45651;-54
2023/09/01 05:12:33;;;;;;;;;0.67;0.67;;;;;18.48;84.35;100922.47;5094054;27;45699;-55
2023/09/01 05:14:59;;;;;;;;;1.00;1.00;;;;;18.48;84.44;100919.78;5096221;27;45523;-54
2023/09/01 05:17:25;;;;;;;;;2.25;1.00;;;;;18.48;84.36;100917.09;5084009;27;45868;-54
2023/09/01 05:19:50;;;;;;;;;1.00;1.00;;;;;18.50;83.98;100925.06;5090244;27;70945;-55
2023/09/01 05:22:15;;;;;;;;;1.00;1.00;;;;;18.51;83.94;100921.38;5085984;27;61930;-54
2023/09/01 05:24:41;;;;;;;;;0.00;0.00;;;;;18.51;84.30;100916.84;5067741;27;67142;-56
2023/09/01 05:27:06;;;;;;;;;1.00;1.00;;;;;18.54;84.74;100920.25;5083413;27;46172;-54
2023/09/01 05:29:32;;;;;;;;;1.00;1.00;;;;;18.57;84.60;100918.19;5087323;27;69736;-55
2023/09/01 05:31:57;;;;;;;;;1.00;1.00;;;;;18.61;84.37;100916.94;5088976;27;58685;-54
2023/09/01 05:34:22;;;;;;;;;3.25;1.00;;;;;18.65;84.03;100912.16;5091153;27;45556;-55
2023/09/01 05:36:48;;;;;;;;;1.75;0.50;;;;;18.68;83.89;100919.97;5097308;27;54405;-55
2023/09/01 05:39:13;;;;;;;;;0.50;0.50;;;;;18.68;84.54;100926.25;5096918;27;45428;-55
2023/09/01 05:41:38;;;;;;;;;1.00;1.00;;;;;18.67;84.11;100927.22;5080860;27;64897;-54
2023/09/01 05:44:04;;;;;;;;;0.25;0.25;;;;;18.68;84.04;100928.06;5088798;27;68796;-55
2023/09/01 05:46:29;;;;;;;;;0.33;0.33;;;;;18.68;84.30;100922.66;5089628;27;47092;-54
2023/09/01 05:48:54;;;;;;;;;0.25;0.25;;;;;18.66;84.72;100925.50;5090602;27;71370;-51
2023/09/01 05:51:20;;;;;;;;;1.75;1.00;;;;;18.67;84.75;100929.06;5094744;27;66917;-55
2023/09/01 05:53:45;;;;;;;;;0.00;0.00;;;;;18.70;84.86;100941.44;5091025;27;45474;-55
2023/09/01 05:56:11;;;;;;;;;2.00;1.00;;;;;18.71;84.41;100946.69;5094012;27;70872;-54
2023/09/01 05:58:36;;;;;;;;;2.00;0.00;;;;;18.72;84.35;100945.72;5091273;27;45593;-54
2023/09/01 06:01:01;;;;;;;;;3.25;1.00;;;;;18.73;84.58;100946.56;5086998;27;64154;-54
2023/09/01 06:03:27;;;;;;;;;1.25;1.25;;;;;18.74;84.22;100949.13;5080825;27;68266;-54
2023/09/01 06:05:52;;;;;;;;;1.33;0.00;;;;;18.76;84.45;100960.63;5088694;27;67272;-55
2023/09/01 06:08:19;;;;;;;;;1.50;1.50;;;;;18.78;84.48;100950.56;5084442;27;45818;-54
2023/09/01 06:10:44;;;;;;;;;1.00;0.75;;;;;18.80;84.11;100959.41;5072446;27;46915;-55
2023/09/01 06:13:09;;;;;;;;;1.00;1.00;;;;;18.81;84.50;100965.63;5091756;27;45458;-54
2023/09/01 06:15:35;;;;;;;;;0.25;0.25;;;;;18.79;84.21;100970.31;5088365;27;45492;-54
2023/09/01 06:18:00;;;;;;;;;1.00;1.00;;;;;18.78;84.57;100966.75;5082709;27;72252;-56
2023/09/01 06:20:26;;;;;;;;;2.33;1.00;;;;;18.77;85.08;100969.56;5091095;27;66179;-55
2023/09/01 06:22:54;;;;;;;;;0.00;0.00;;;;;18.81;85.02;100971.03;5088117;27;45334;-54
2023/09/01 06:25:20;;;;;;;;;0.67;0.00;;;;;18.84;85.18;100978.88;5087355;27;47225;-53
2023/09/01 06:27:46;;;;;;;;;1.00;1.00;;;;;18.89;84.83;100979.38;5086105;27;45490;-54
2023/09/01 06:30:12;;;;;;;;;0.00;0.00;;;;;18.96;84.95;100977.88;5088847;27;45707;-55
2023/09/01 06:32:37;;;;;;;;;1.75;1.00;;;;;19.06;85.10;100967.19;5087968;27;45948;-56
2023/09/01 06:35:03;;;;;;;;;1.00;1.00;;;;;19.13;84.30;100972.94;5091613;27;62949;-56
2023/09/01 06:37:28;;;;;;;;;0.50;0.00;;;;;19.19;84.76;100977.81;5087158;27;45656;-50
2023/09/01 06:39:53;;;;;;;;;1.00;0.00;;;;;19.23;84.25;100973.88;5092441;27;45338;-54
2023/09/01 06:42:19;;;;;;;;;2.25;1.00;;;;;19.25;84.01;100968.34;5089978;27;45448;-57
2023/09/01 06:44:44;;;;;;;;;2.25;1.00;;;;;19.27;84.41;100978.03;5088434;27;69876;-51
2023/09/01 06:47:09;;;;;;;;;2.00;1.00;;;;;19.33;83.87;100974.81;5080219;27;69576;-50
2023/09/01 06:49:35;;;;;;;;;1.50;0.50;;;;;19.38;84.24;100971.72;5089873;27;45532;-51
2023/09/01 06:52:00;;;;;;;;;2.00;0.50;;;;;19.44;83.50;100973.03;5093369;27;70122;-50
2023/09/01 06:54:26;;;;;;;;;3.00;1.00;;;;;19.46;83.27;100974.63;5090788;27;45885;-49
2023/09/01 06:56:51;;;;;;;;;1.75;1.00;;;;;19.53;83.66;100977.66;5092646;27;71935;-57
2023/09/01 06:59:16;;;;;;;;;0.00;0.00;;;;;19.58;83.23;100980.81;5093649;27;63648;-57
2023/09/01 07:01:42;;;;;;;;;0.75;0.75;;;;;19.62;83.02;100981.38;5091365;27;45638;-58
2023/09/01 07:04:07;;;;;;;;;0.00;0.00;;;;;19.70;83.38;100983.44;5098822;27;45818;-58
2023/09/01 07:06:33;;;;;;;;;0.00;0.00;;;;;19.71;82.85;100983.31;5094085;27;45378;-58
2023/09/01 07:08:58;;;;;;;;;0.50;0.25;;;;;19.74;82.95;100977.66;5079103;27;64227;-47
2023/09/01 07:11:24;;;;;;;;;1.00;0.75;;;;;19.77;82.43;100980.06;5081021;27;65742;-50
2023/09/01 07:13:49;;;;;;;;;0.00;0.00;;;;;19.83;82.53;100978.75;5084176;27;46311;-47
2023/09/01 07:16:15;;;;;;;;;0.00;0.00;;;;;19.88;82.09;100981.03;5098674;27;45579;-51
2023/09/01 07:18:41;;;;;;;;;1.00;0.33;;;;;19.88;82.14;100978.31;5100096;27;45443;-49
2023/09/01 07:21:06;;;;;;;;;1.00;1.00;;;;;19.87;82.16;100985.56;5079408;27;45385;-47
2023/09/01 07:23:31;;;;;;;;;0.00;0.00;;;;;19.83;82.08;100992.22;5091004;27;45807;-50
2023/09/01 07:25:58;;;;;;;;;1.00;1.00;;;;;19.77;82.95;101003.50;5089888;27;45521;-52
2023/09/01 07:28:24;;;;;;;;;0.25;0.25;;;;;19.73;83.17;100991.28;5081353;27;45459;-51
2023/09/01 07:30:50;;;;;;;;;0.00;0.00;;;;;19.76;83.98;100999.94;5084455;27;45512;-48
2023/09/01 07:33:18;;;;;;;;;0.50;0.50;;;;;19.76;83.46;101002.66;5084001;27;45433;-51
2023/09/01 07:35:50;;;;;;;;;0.25;0.25;;;;;19.75;83.42;100994.69;5093875;27;45417;-49
2023/09/01 07:38:17;;;;;;;;;0.00;0.00;;;;;19.70;83.68;100999.63;5086824;27;45446;-53
2023/09/01 07:40:43;;;;;;;;;0.00;0.00;;;;;19.70;84.17;101005.00;5089695;27;45509;-51
2023/09/01 07:43:08;;;;;;;;;0.00;0.00;;;;;19.69;84.36;101000.63;5088098;27;45489;-52
2023/09/01 07:45:34;;;;;;;;;0.00;0.00;;;;;19.71;84.68;100994.13;5086530;27;45683;-50
2023/09/01 07:48:00;;;;;;;;;0.00;0.00;;;;;19.76;84.70;100994.53;5079901;27;45347;-51
2023/09/01 07:50:29;;;;;;;;;2.00;1.00;;;;;19.81;84.24;100989.63;5084545;27;45855;-52
2023/09/01 07:52:55;;;;;;;;;1.75;1.00;;;;;19.85;84.50;100990.25;5080943;27;46316;-51
2023/09/01 07:55:21;;;;;;;;;2.00;0.00;;;;;19.93;84.41;100995.84;5078867;27;45481;-49
2023/09/01 07:57:46;;;;;;;;;2.25;1.00;;;;;20.07;84.61;100988.38;5082608;27;45677;-50
2023/09/01 08:00:12;;;;;;;;;0.50;0.00;;;;;20.21;83.96;100993.44;5083624;27;45449;-49
2023/09/01 08:02:37;;;;;;;;;1.00;1.00;;;;;20.42;83.65;100992.53;5079869;27;45407;-47
2023/09/01 08:05:03;;;;;;;;;1.00;1.00;;;;;20.69;82.51;100993.72;5084999;27;72944;-49
2023/09/01 08:07:30;;;;;;;;;1.00;1.00;;;;;21.07;83.07;100994.84;5085827;27;45303;-49
2023/09/01 08:09:55;;;;;;;;;2.00;0.00;;;;;21.45;80.94;101006.69;5089782;27;45553;-47
2023/09/01 08:12:21;;;;;;;;;1.00;1.00;;;;;21.79;80.49;101003.53;5077640;27;47911;-48
2023/09/01 08:14:46;;;;;;;;;1.00;1.00;;;;;21.94;78.16;101004.78;5086617;27;45414;-49
2023/09/01 08:17:11;;;;;;;;;0.25;0.25;;;;;22.16;78.12;100993.75;5089478;27;66660;-48
2023/09/01 08:19:40;;;;;;;;;2.75;0.25;;;;;22.51;77.27;100994.94;5086733;27;50333;-47
2023/09/01 08:22:05;;;;;;;;;0.00;0.00;;;;;22.73;74.61;100993.66;5091250;27;47179;-52
2023/09/01 08:24:31;;;;;;;;;3.00;0.00;;;;;22.71;72.65;100999.25;5087556;27;45724;-52
2023/09/01 08:26:56;;;;;;;;;1.00;0.25;;;;;22.57;72.95;100991.63;5079540;27;45424;-54
2023/09/01 08:29:21;;;;;;;;;0.00;0.00;;;;;22.34;73.13;100989.25;5080049;27;67629;-55
2023/09/01 08:31:47;;;;;;;;;1.00;1.00;;;;;22.13;73.80;101000.31;5054486;27;48182;-46
2023/09/01 08:34:12;;;;;;;;;2.00;0.00;;;;;22.08;74.55;100998.03;5082492;27;45571;-47
2023/09/01 08:36:38;;;;;;;;;2.00;0.25;;;;;22.13;74.28;101000.31;5077291;27;45543;-49
2023/09/01 08:39:04;;;;;;;;;1.00;1.00;;;;;22.39;73.22;100999.69;5098282;27;45299;-49
2023/09/01 08:41:29;;;;;;;;;0.00;0.00;;;;;22.77;72.64;100995.91;5092202;27;45504;-52
2023/09/01 08:43:58;;;;;;;;;21.00;20.33;;;;;23.12;72.36;100990.69;5076444;27;71597;-52
2023/09/01 08:46:26;;;;;;;;;0.00;0.00;;;;;23.64;70.42;100997.28;5050882;28;45552;-51
2023/09/01 08:48:51;;;;;;;;;0.00;0.00;;;;;24.32;69.85;101002.00;5099412;27;45500;-51
2023/09/01 08:51:17;;;;;;;;;0.00;0.00;;;;;24.76;66.59;101001.03;5086895;27;73820;-49
2023/09/01 08:53:43;;;;;;;;;0.25;0.25;;;;;24.99;63.88;101003.13;5068622;28;71511;-51
2023/09/01 08:56:08;;;;;;;;;1.00;1.00;;;;;25.35;64.30;100995.53;5077234;28;45659;-50
2023/09/01 08:58:33;;;;;;;;;1.50;0.75;;;;;25.53;63.00;101011.72;5085233;27;45612;-50
2023/09/01 09:00:59;;;;;;;;;2.50;1.00;;;;;25.72;60.35;101012.38;5080692;27;45466;-54
2023/09/01 09:03:24;;;;;;;;;0.00;0.00;;;;;26.28;63.52;101001.56;5070343;28;45364;-51
2023/09/01 09:05:49;;;;;;;;;2.25;1.25;;;;;27.12;57.41;101005.63;5091730;27;65942;-49
2023/09/01 09:08:17;;;;;;;;;2.00;2.00;;;;;27.36;57.58;101012.81;5090772;27;62368;-51
2023/09/01 09:10:46;;;;;;;;;4.00;2.25;;;;;27.07;56.45;101007.03;5087410;27;47091;-52
2023/09/01 09:13:21;;;;;;;;;2.00;1.00;;;;;26.67;57.78;101014.38;5077467;27;45588;-56
2023/09/01 09:16:09;;;;;;;;;8.25;6.50;;;;;26.51;56.38;101012.56;5087124;27;45438;-55
2023/09/01 09:18:35;;;;;;;;;2.00;2.00;;;;;26.46;57.90;101023.16;5072965;27;45404;-51
2023/09/01 09:21:01;;;;;;;;;1.00;1.00;;;;;26.85;58.67;101013.31;5067342;27;45620;-48
2023/09/01 09:23:45;;;;;;;;;2.25;1.00;;;;;27.20;56.52;101016.50;5077765;27;45399;-49
2023/09/01 09:26:11;;;;;;;;;1.75;1.75;;;;;27.35;56.49;101017.44;5081838;27;45572;-52
2023/09/01 09:28:36;;;;;;;;;2.75;1.50;;;;;27.79;53.48;101010.41;5092205;27;45549;-51
2023/09/01 09:31:02;;;;;;;;;0.00;0.00;;;;;28.23;54.13;101017.84;5061603;27;46918;-50
2023/09/01 09:33:35;;;;;;;;;0.00;0.00;;;;;28.43;53.80;101020.00;5066900;27;45405;-53
2023/09/01 09:36:03;;;;;;;;;0.25;0.25;;;;;28.85;51.88;101018.50;5071580;27;45404;-53
2023/09/01 09:38:47;;;;;;;;;1.00;1.00;;;;;29.52;51.25;101018.38;5071793;27;45516;-54
2023/09/01 09:41:13;;;;;;;;;2.00;0.00;;;;;29.67;49.54;101024.63;5073757;27;45437;-55
2023/09/01 09:43:43;;;;;;;;;0.00;0.00;;;;;29.48;49.53;101028.03;5086638;27;45541;-55
2023/09/01 09:46:09;;;;;;;;;1.25;1.00;;;;;30.72;50.09;101023.00;5073011;27;46117;-54
2023/09/01 09:48:35;;;;;;;;;0.25;0.25;;;;;31.66;47.59;101037.84;5090280;27;45501;-56
2023/09/01 09:51:02;;;;;;;;;0.25;0.25;;;;;31.63;45.75;101038.25;5075769;27;46071;-58
2023/09/01 09:53:30;;;;;;;;;4.00;4.00;;;;;30.82;45.79;101043.53;5070445;28;45556;-55
2023/09/01 09:55:57;;;;;;;;;2.00;2.00;;;;;29.91;46.54;101038.94;5055739;27;65182;-49
2023/09/01 09:58:31;;;;;;;;;3.25;2.00;;;;;28.87;46.83;101037.44;5062231;28;45418;-52
2023/09/01 10:01:12;;;;;;;;;0.25;0.25;;;;;27.90;46.93;101037.28;5066545;27;47217;-53
2023/09/01 10:03:37;;;;;;;;;0.80;0.80;;;;;27.16;49.28;101037.00;5070694;27;45689;-51
2023/09/01 10:06:05;;;;;;;;;1.00;1.00;;;;;26.59;50.86;101049.88;5062595;27;67699;-52
2023/09/01 10:08:32;;;;;;;;;0.25;0.25;;;;;26.14;51.45;101049.50;5096952;27;45372;-51
2023/09/01 10:10:58;;;;;;;;;1.00;0.75;;;;;25.81;52.83;101048.66;5063137;27;46386;-48
2023/09/01 10:13:23;;;;;;;;;0.00;0.00;;;;;25.48;52.88;101045.94;5068744;27;45331;-50
2023/09/01 10:15:48;;;;;;;;;0.50;0.50;;;;;25.26;54.34;101035.47;5091945;27;52875;-47
2023/09/01 10:18:14;;;;;;;;;1.50;1.00;;;;;25.16;54.95;101039.38;5095473;27;45468;-48
2023/09/01 10:20:42;;;;;;;;;1.00;1.00;;;;;25.00;54.70;101034.75;5081688;27;74726;-51
2023/09/01 10:23:08;;;;;;;;;1.80;0.20;;;;;24.84;54.54;101030.97;5084024;27;45744;-52
2023/09/01 10:25:34;;;;;;;;;0.75;0.75;;;;;24.77;55.25;101038.94;5088745;27;45783;-51
2023/09/01 10:28:13;;;;;;;;;0.25;0.25;;;;;24.67;54.66;101037.38;5090568;27;45548;-51
2023/09/01 10:30:40;;;;;;;;;0.00;0.00;;;;;24.55;55.37;101023.19;5090730;27;46424;-51
2023/09/01 10:33:11;;;;;;;;;1.25;1.25;;;;;24.42;55.85;101034.50;5096771;27;45469;-49
2023/09/01 10:35:47;;;;;;;;;1.75;1.50;;;;;24.27;55.76;101034.22;5080544;27;45621;-52
2023/09/01 10:38:15;;;;;;;;;1.25;1.25;;;;;24.08;56.44;101036.16;5099216;27;45354;-51
2023/09/01 10:40:41;;;;;;;;;1.00;1.00;;;;;23.93;56.31;101045.91;5083037;27;47090;-53
2023/09/01 10:43:06;;;;;;;;;2.00;0.00;;;;;23.84;57.27;101044.09;5095902;27;45615;-52
2023/09/01 10:45:32;;;;;;;;;1.00;1.00;;;;;23.81;57.22;101055.28;5093919;27;48326;-50
2023/09/01 10:47:57;;;;;;;;;4.00;1.00;;;;;23.83;56.82;101045.09;5095891;27;45257;-49
2023/09/01 10:50:23;;;;;;;;;1.00;1.00;;;;;24.03;57.05;101049.38;5082622;27;72282;-49
2023/09/01 10:53:26;;;;;;;;;0.25;0.25;;;;;24.71;56.79;101036.03;5080688;27;45681;-49
2023/09/01 10:56:14;;;;;;;;;1.00;1.00;;;;;25.68;55.04;101041.00;5082875;27;45443;-50
2023/09/01 10:58:47;;;;;;;;;3.00;1.00;;;;;26.03;54.05;101047.09;5061595;27;45593;-48
2023/09/01 11:01:35;;;;;;;;;2.00;2.00;;;;;26.18;52.06;101047.25;5077747;27;45729;-48
2023/09/01 11:04:13;;;;;;;;;0.20;0.20;;;;;26.35;53.21;101032.56;5051583;27;45517;-48
2023/09/01 11:06:57;;;;;;;;;1.75;0.00;;;;;26.57;51.74;101030.13;5089039;27;45426;-47
2023/09/01 11:09:49;;;;;;;;;1.00;1.00;;;;;27.53;51.35;101030.81;5090286;27;45660;-52
2023/09/01 11:12:14;;;;;;;;;1.50;1.50;;;;;28.36;49.79;101025.38;5084732;27;45581;-54
2023/09/01 11:14:59;;;;;;;;;1.00;1.00;;;;;29.40;49.69;101039.09;5083213;27;45437;-48
2023/09/01 11:17:44;;;;;;;;;1.00;1.00;;;;;29.75;46.05;101036.47;5091417;27;45734;-53
2023/09/01 11:20:11;;;;;;;;;1.00;1.00;;;;;29.59;46.75;101037.59;5090750;27;45700;-53
2023/09/01 11:22:38;;;;;;;;;1.00;1.00;;;;;29.33;47.02;101039.91;5088642;27;46243;-52
2023/09/01 11:25:07;;;;;;;;;3.75;3.00;;;;;29.03;44.87;101042.69;5091535;27;45551;-48